sensor_id;sensor_type;location;lat;lon;timestamp;temperature;humidity
49731;DHT22;35622;52.008;5.426;2023-07-13T00:02:12;20.80;72.40
49731;DHT22;35622;52.008;5.426;2023-07-13T00:04:37;20.80;72.40
49731;DHT22;35622;52.008;5.426;2023-07-13T00:07:03;20.70;72.80
49731;DHT22;35622;52.008;5.426;2023-07-13T00:09:29;20.70;72.80
49731;DHT22;35622;52.008;5.426;2023-07-13T00:11:56;20.60;73.20
49731;DHT22;35622;52.008;5.426;2023-07-13T00:14:25;20.50;73.50
49731;DHT22;35622;52.008;5.426;2023-07-13T00:16:51;20.40;73.70
49731;DHT22;35622;52.008;5.426;2023-07-13T00:19:16;20.40;74.00
49731;DHT22;35622;52.008;5.426;2023-07-13T00:21:42;20.40;73.90
49731;DHT22;35622;52.008;5.426;2023-07-13T00:24:11;20.40;73.80
49731;DHT22;35622;52.008;5.426;2023-07-13T00:26:40;20.30;73.30
49731;DHT22;35622;52.008;5.426;2023-07-13T00:29:05;20.30;73.60
49731;DHT22;35622;52.008;5.426;2023-07-13T00:31:34;20.20;73.70
49731;DHT22;35622;52.008;5.426;2023-07-13T00:34:01;20.10;73.80
49731;DHT22;35622;52.008;5.426;2023-07-13T00:36:26;20.10;74.00
49731;DHT22;35622;52.008;5.426;2023-07-13T00:38:52;20.00;74.00
49731;DHT22;35622;52.008;5.426;2023-07-13T00:41:18;20.00;74.40
49731;DHT22;35622;52.008;5.426;2023-07-13T00:43:44;19.90;74.70
49731;DHT22;35622;52.008;5.426;2023-07-13T00:46:23;19.80;74.70
49731;DHT22;35622;52.008;5.426;2023-07-13T00:48:50;19.80;75.00
49731;DHT22;35622;52.008;5.426;2023-07-13T00:51:21;19.80;75.40
49731;DHT22;35622;52.008;5.426;2023-07-13T00:53:48;19.70;75.50
49731;DHT22;35622;52.008;5.426;2023-07-13T00:56:14;19.70;75.40
49731;DHT22;35622;52.008;5.426;2023-07-13T00:58:40;19.60;75.40
49731;DHT22;35622;52.008;5.426;2023-07-13T01:01:06;19.50;75.50
49731;DHT22;35622;52.008;5.426;2023-07-13T01:03:32;19.30;76.70
49731;DHT22;35622;52.008;5.426;2023-07-13T01:05:57;19.30;76.90
49731;DHT22;35622;52.008;5.426;2023-07-13T01:08:23;19.30;77.30
49731;DHT22;35622;52.008;5.426;2023-07-13T01:10:57;19.40;77.20
49731;DHT22;35622;52.008;5.426;2023-07-13T01:13:23;19.40;76.80
49731;DHT22;35622;52.008;5.426;2023-07-13T01:15:51;19.50;76.70
49731;DHT22;35622;52.008;5.426;2023-07-13T01:18:24;19.40;76.70
49731;DHT22;35622;52.008;5.426;2023-07-13T01:21:03;19.30;76.90
49731;DHT22;35622;52.008;5.426;2023-07-13T01:23:29;19.10;77.50
49731;DHT22;35622;52.008;5.426;2023-07-13T01:25:57;19.20;77.90
49731;DHT22;35622;52.008;5.426;2023-07-13T01:28:24;19.20;78.00
49731;DHT22;35622;52.008;5.426;2023-07-13T01:30:54;19.20;77.90
49731;DHT22;35622;52.008;5.426;2023-07-13T01:33:20;19.30;78.20
49731;DHT22;35622;52.008;5.426;2023-07-13T01:35:46;19.20;77.80
49731;DHT22;35622;52.008;5.426;2023-07-13T01:38:14;19.20;78.00
49731;DHT22;35622;52.008;5.426;2023-07-13T01:40:40;19.10;78.70
49731;DHT22;35622;52.008;5.426;2023-07-13T01:43:06;19.10;78.70
49731;DHT22;35622;52.008;5.426;2023-07-13T01:45:32;19.10;78.60
49731;DHT22;35622;52.008;5.426;2023-07-13T01:47:58;19.00;79.00
49731;DHT22;35622;52.008;5.426;2023-07-13T01:50:24;18.70;79.50
49731;DHT22;35622;52.008;5.426;2023-07-13T01:52:50;18.90;79.60
49731;DHT22;35622;52.008;5.426;2023-07-13T01:55:16;18.90;79.00
49731;DHT22;35622;52.008;5.426;2023-07-13T01:57:41;19.00;78.60
49731;DHT22;35622;52.008;5.426;2023-07-13T02:00:09;19.00;78.70
49731;DHT22;35622;52.008;5.426;2023-07-13T02:02:35;18.90;78.60
49731;DHT22;35622;52.008;5.426;2023-07-13T02:05:01;18.90;78.90
49731;DHT22;35622;52.008;5.426;2023-07-13T02:07:26;18.80;79.30
49731;DHT22;35622;52.008;5.426;2023-07-13T02:09:52;18.60;80.00
49731;DHT22;35622;52.008;5.426;2023-07-13T02:12:19;18.40;81.20
49731;DHT22;35622;52.008;5.426;2023-07-13T02:14:44;18.30;82.00
49731;DHT22;35622;52.008;5.426;2023-07-13T02:17:11;18.20;82.30
49731;DHT22;35622;52.008;5.426;2023-07-13T02:19:36;18.40;82.20
49731;DHT22;35622;52.008;5.426;2023-07-13T02:22:02;18.60;81.50
49731;DHT22;35622;52.008;5.426;2023-07-13T02:24:28;18.60;81.20
49731;DHT22;35622;52.008;5.426;2023-07-13T02:26:54;18.50;80.90
49731;DHT22;35622;52.008;5.426;2023-07-13T02:29:19;18.50;81.30
49731;DHT22;35622;52.008;5.426;2023-07-13T02:31:45;18.30;81.90
49731;DHT22;35622;52.008;5.426;2023-07-13T02:34:10;18.30;82.50
49731;DHT22;35622;52.008;5.426;2023-07-13T02:36:36;18.30;82.40
49731;DHT22;35622;52.008;5.426;2023-07-13T02:39:04;18.30;83.20
49731;DHT22;35622;52.008;5.426;2023-07-13T02:41:30;18.40;82.60
49731;DHT22;35622;52.008;5.426;2023-07-13T02:44:01;18.50;82.30
49731;DHT22;35622;52.008;5.426;2023-07-13T02:46:31;18.40;82.70
49731;DHT22;35622;52.008;5.426;2023-07-13T02:48:56;18.40;83.40
49731;DHT22;35622;52.008;5.426;2023-07-13T02:51:22;18.50;83.10
49731;DHT22;35622;52.008;5.426;2023-07-13T02:53:47;18.30;82.90
49731;DHT22;35622;52.008;5.426;2023-07-13T02:56:13;18.50;83.10
49731;DHT22;35622;52.008;5.426;2023-07-13T02:58:39;18.60;83.70
49731;DHT22;35622;52.008;5.426;2023-07-13T03:01:10;18.70;82.20
49731;DHT22;35622;52.008;5.426;2023-07-13T03:03:35;18.70;82.20
49731;DHT22;35622;52.008;5.426;2023-07-13T03:06:02;18.70;82.30
49731;DHT22;35622;52.008;5.426;2023-07-13T03:08:29;18.60;82.20
49731;DHT22;35622;52.008;5.426;2023-07-13T03:11:00;18.50;82.90
49731;DHT22;35622;52.008;5.426;2023-07-13T03:13:26;18.40;85.10
49731;DHT22;35622;52.008;5.426;2023-07-13T03:15:51;18.40;84.00
49731;DHT22;35622;52.008;5.426;2023-07-13T03:18:17;18.50;83.60
49731;DHT22;35622;52.008;5.426;2023-07-13T03:20:43;18.50;83.60
49731;DHT22;35622;52.008;5.426;2023-07-13T03:23:09;18.50;83.10
49731;DHT22;35622;52.008;5.426;2023-07-13T03:25:34;18.60;83.00
49731;DHT22;35622;52.008;5.426;2023-07-13T03:28:00;18.60;82.80
49731;DHT22;35622;52.008;5.426;2023-07-13T03:30:26;18.60;83.30
49731;DHT22;35622;52.008;5.426;2023-07-13T03:32:51;18.60;83.00
49731;DHT22;35622;52.008;5.426;2023-07-13T03:35:17;18.60;82.90
49731;DHT22;35622;52.008;5.426;2023-07-13T03:37:43;18.50;82.70
49731;DHT22;35622;52.008;5.426;2023-07-13T03:40:09;18.50;82.80
49731;DHT22;35622;52.008;5.426;2023-07-13T03:42:35;18.60;83.20
49731;DHT22;35622;52.008;5.426;2023-07-13T03:45:01;18.50;83.60
49731;DHT22;35622;52.008;5.426;2023-07-13T03:47:27;18.50;83.60
49731;DHT22;35622;52.008;5.426;2023-07-13T03:49:52;18.50;83.60
49731;DHT22;35622;52.008;5.426;2023-07-13T03:52:19;18.50;83.50
49731;DHT22;35622;52.008;5.426;2023-07-13T03:54:44;18.60;83.30
49731;DHT22;35622;52.008;5.426;2023-07-13T03:57:10;18.60;83.50
49731;DHT22;35622;52.008;5.426;2023-07-13T03:59:36;18.60;83.40
49731;DHT22;35622;52.008;5.426;2023-07-13T04:02:02;18.60;84.20
49731;DHT22;35622;52.008;5.426;2023-07-13T04:04:29;18.60;83.10
49731;DHT22;35622;52.008;5.426;2023-07-13T04:06:57;18.60;83.00
49731;DHT22;35622;52.008;5.426;2023-07-13T04:09:24;18.60;83.10
49731;DHT22;35622;52.008;5.426;2023-07-13T04:11:50;18.70;83.40
49731;DHT22;35622;52.008;5.426;2023-07-13T04:14:16;18.70;84.00
49731;DHT22;35622;52.008;5.426;2023-07-13T04:16:42;18.60;84.50
49731;DHT22;35622;52.008;5.426;2023-07-13T04:19:09;18.60;83.70
49731;DHT22;35622;52.008;5.426;2023-07-13T04:21:36;18.60;84.40
49731;DHT22;35622;52.008;5.426;2023-07-13T04:24:03;18.60;84.60
49731;DHT22;35622;52.008;5.426;2023-07-13T04:26:29;18.60;85.00
49731;DHT22;35622;52.008;5.426;2023-07-13T04:28:55;18.60;84.70
49731;DHT22;35622;52.008;5.426;2023-07-13T04:31:21;18.80;85.00
49731;DHT22;35622;52.008;5.426;2023-07-13T04:33:48;18.70;84.70
49731;DHT22;35622;52.008;5.426;2023-07-13T04:36:15;18.70;85.70
49731;DHT22;35622;52.008;5.426;2023-07-13T04:38:41;18.70;85.90
49731;DHT22;35622;52.008;5.426;2023-07-13T04:41:08;18.80;86.00
49731;DHT22;35622;52.008;5.426;2023-07-13T04:43:34;18.90;85.80
49731;DHT22;35622;52.008;5.426;2023-07-13T04:46:05;19.00;86.40
49731;DHT22;35622;52.008;5.426;2023-07-13T04:48:31;19.10;86.70
49731;DHT22;35622;52.008;5.426;2023-07-13T04:50:57;19.20;86.40
49731;DHT22;35622;52.008;5.426;2023-07-13T04:53:24;19.30;86.20
49731;DHT22;35622;52.008;5.426;2023-07-13T04:55:50;19.40;85.80
49731;DHT22;35622;52.008;5.426;2023-07-13T04:58:16;19.40;86.00
49731;DHT22;35622;52.008;5.426;2023-07-13T05:00:42;19.40;86.40
49731;DHT22;35622;52.008;5.426;2023-07-13T05:03:08;19.40;85.90
49731;DHT22;35622;52.008;5.426;2023-07-13T05:05:34;19.50;86.40
49731;DHT22;35622;52.008;5.426;2023-07-13T05:08:00;19.50;86.20
49731;DHT22;35622;52.008;5.426;2023-07-13T05:10:25;19.60;86.50
49731;DHT22;35622;52.008;5.426;2023-07-13T05:12:51;19.80;86.20
49731;DHT22;35622;52.008;5.426;2023-07-13T05:15:17;20.00;85.20
49731;DHT22;35622;52.008;5.426;2023-07-13T05:17:47;20.10;85.00
49731;DHT22;35622;52.008;5.426;2023-07-13T05:20:13;20.00;84.70
49731;DHT22;35622;52.008;5.426;2023-07-13T05:22:38;19.90;85.40
49731;DHT22;35622;52.008;5.426;2023-07-13T05:25:06;20.10;84.70
49731;DHT22;35622;52.008;5.426;2023-07-13T05:27:32;20.00;85.30
49731;DHT22;35622;52.008;5.426;2023-07-13T05:29:57;19.80;86.00
49731;DHT22;35622;52.008;5.426;2023-07-13T05:32:23;20.00;86.90
49731;DHT22;35622;52.008;5.426;2023-07-13T05:34:48;19.80;86.40
49731;DHT22;35622;52.008;5.426;2023-07-13T05:37:14;19.80;88.00
49731;DHT22;35622;52.008;5.426;2023-07-13T05:39:40;20.00;87.70
49731;DHT22;35622;52.008;5.426;2023-07-13T05:42:06;19.90;87.30
49731;DHT22;35622;52.008;5.426;2023-07-13T05:44:31;20.10;86.70
49731;DHT22;35622;52.008;5.426;2023-07-13T05:46:57;20.10;87.60
49731;DHT22;35622;52.008;5.426;2023-07-13T05:49:23;20.20;86.80
49731;DHT22;35622;52.008;5.426;2023-07-13T05:51:49;19.80;88.20
49731;DHT22;35622;52.008;5.426;2023-07-13T05:54:15;19.90;89.10
49731;DHT22;35622;52.008;5.426;2023-07-13T05:56:40;20.10;88.80
49731;DHT22;35622;52.008;5.426;2023-07-13T05:59:07;19.90;87.10
49731;DHT22;35622;52.008;5.426;2023-07-13T06:01:32;19.70;88.90
49731;DHT22;35622;52.008;5.426;2023-07-13T06:03:58;19.70;89.70
49731;DHT22;35622;52.008;5.426;2023-07-13T06:06:24;19.80;89.80
49731;DHT22;35622;52.008;5.426;2023-07-13T06:08:50;19.80;90.10
49731;DHT22;35622;52.008;5.426;2023-07-13T06:11:21;19.80;90.10
49731;DHT22;35622;52.008;5.426;2023-07-13T06:13:47;19.70;90.40
49731;DHT22;35622;52.008;5.426;2023-07-13T06:16:14;19.90;90.30
49731;DHT22;35622;52.008;5.426;2023-07-13T06:18:40;20.00;90.10
49731;DHT22;35622;52.008;5.426;2023-07-13T06:21:18;20.20;90.00
49731;DHT22;35622;52.008;5.426;2023-07-13T06:23:45;20.50;89.10
49731;DHT22;35622;52.008;5.426;2023-07-13T06:26:13;20.40;88.30
49731;DHT22;35622;52.008;5.426;2023-07-13T06:28:38;20.40;88.60
49731;DHT22;35622;52.008;5.426;2023-07-13T06:31:06;20.60;88.60
49731;DHT22;35622;52.008;5.426;2023-07-13T06:33:32;20.60;88.20
49731;DHT22;35622;52.008;5.426;2023-07-13T06:35:58;20.70;88.60
49731;DHT22;35622;52.008;5.426;2023-07-13T06:38:24;20.70;86.90
49731;DHT22;35622;52.008;5.426;2023-07-13T06:40:49;20.80;88.70
49731;DHT22;35622;52.008;5.426;2023-07-13T06:43:15;21.00;87.30
49731;DHT22;35622;52.008;5.426;2023-07-13T06:45:44;21.20;87.20
49731;DHT22;35622;52.008;5.426;2023-07-13T06:48:11;21.30;86.90
49731;DHT22;35622;52.008;5.426;2023-07-13T06:50:37;21.30;85.60
49731;DHT22;35622;52.008;5.426;2023-07-13T06:53:02;21.20;86.60
49731;DHT22;35622;52.008;5.426;2023-07-13T06:55:28;21.20;86.50
49731;DHT22;35622;52.008;5.426;2023-07-13T06:57:54;21.10;85.70
49731;DHT22;35622;52.008;5.426;2023-07-13T07:00:19;21.20;87.50
49731;DHT22;35622;52.008;5.426;2023-07-13T07:02:45;21.20;86.70
49731;DHT22;35622;52.008;5.426;2023-07-13T07:05:11;21.40;86.20
49731;DHT22;35622;52.008;5.426;2023-07-13T07:07:37;21.70;86.80
49731;DHT22;35622;52.008;5.426;2023-07-13T07:10:03;22.00;85.80
49731;DHT22;35622;52.008;5.426;2023-07-13T07:12:29;22.30;83.80
49731;DHT22;35622;52.008;5.426;2023-07-13T07:14:54;22.70;80.60
49731;DHT22;35622;52.008;5.426;2023-07-13T07:17:20;22.70;79.80
49731;DHT22;35622;52.008;5.426;2023-07-13T07:19:46;22.60;79.30
49731;DHT22;35622;52.008;5.426;2023-07-13T07:22:11;22.60;81.80
49731;DHT22;35622;52.008;5.426;2023-07-13T07:24:37;22.80;80.80
49731;DHT22;35622;52.008;5.426;2023-07-13T07:27:03;23.10;79.90
49731;DHT22;35622;52.008;5.426;2023-07-13T07:29:29;23.00;78.60
49731;DHT22;35622;52.008;5.426;2023-07-13T07:31:54;23.00;78.70
49731;DHT22;35622;52.008;5.426;2023-07-13T07:34:20;23.10;80.70
49731;DHT22;35622;52.008;5.426;2023-07-13T07:36:46;23.70;77.80
49731;DHT22;35622;52.008;5.426;2023-07-13T07:39:12;23.80;76.60
49731;DHT22;35622;52.008;5.426;2023-07-13T07:41:38;24.00;75.50
49731;DHT22;35622;52.008;5.426;2023-07-13T07:44:04;24.20;75.80
49731;DHT22;35622;52.008;5.426;2023-07-13T07:46:29;24.00;74.20
49731;DHT22;35622;52.008;5.426;2023-07-13T07:48:56;23.90;74.00
49731;DHT22;35622;52.008;5.426;2023-07-13T07:51:22;24.00;75.80
49731;DHT22;35622;52.008;5.426;2023-07-13T07:53:48;23.60;75.60
49731;DHT22;35622;52.008;5.426;2023-07-13T07:56:14;23.70;75.20
49731;DHT22;35622;52.008;5.426;2023-07-13T07:58:42;23.40;75.00
49731;DHT22;35622;52.008;5.426;2023-07-13T08:01:08;23.20;77.10
49731;DHT22;35622;52.008;5.426;2023-07-13T08:03:33;23.00;76.60
49731;DHT22;35622;52.008;5.426;2023-07-13T08:05:59;22.80;77.20
49731;DHT22;35622;52.008;5.426;2023-07-13T08:08:25;23.00;79.10
49731;DHT22;35622;52.008;5.426;2023-07-13T08:10:51;23.20;80.00
49731;DHT22;35622;52.008;5.426;2023-07-13T08:13:17;23.20;78.70
49731;DHT22;35622;52.008;5.426;2023-07-13T08:15:42;23.80;77.40
49731;DHT22;35622;52.008;5.426;2023-07-13T08:18:09;24.90;77.60
49731;DHT22;35622;52.008;5.426;2023-07-13T08:20:39;25.80;72.70
49731;DHT22;35622;52.008;5.426;2023-07-13T08:23:05;26.00;67.00
49731;DHT22;35622;52.008;5.426;2023-07-13T08:25:31;26.00;64.70
49731;DHT22;35622;52.008;5.426;2023-07-13T08:27:56;26.10;67.30
49731;DHT22;35622;52.008;5.426;2023-07-13T08:30:22;26.00;62.90
49731;DHT22;35622;52.008;5.426;2023-07-13T08:32:48;26.30;63.40
49731;DHT22;35622;52.008;5.426;2023-07-13T08:35:14;26.20;63.60
49731;DHT22;35622;52.008;5.426;2023-07-13T08:37:41;26.00;63.60
49731;DHT22;35622;52.008;5.426;2023-07-13T08:40:12;25.60;64.70
49731;DHT22;35622;52.008;5.426;2023-07-13T08:42:57;25.10;65.00
49731;DHT22;35622;52.008;5.426;2023-07-13T08:45:45;25.10;66.20
49731;DHT22;35622;52.008;5.426;2023-07-13T08:48:13;25.30;61.50
49731;DHT22;35622;52.008;5.426;2023-07-13T08:53:40;24.90;65.60
49731;DHT22;35622;52.008;5.426;2023-07-13T08:56:16;24.70;63.70
49731;DHT22;35622;52.008;5.426;2023-07-13T08:58:43;24.90;66.00
49731;DHT22;35622;52.008;5.426;2023-07-13T09:04:14;24.30;65.50
49731;DHT22;35622;52.008;5.426;2023-07-13T09:07:05;23.80;66.80
49731;DHT22;35622;52.008;5.426;2023-07-13T09:09:49;23.90;66.20
49731;DHT22;35622;52.008;5.426;2023-07-13T09:12:40;23.80;67.40
49731;DHT22;35622;52.008;5.426;2023-07-13T09:15:38;23.90;65.60
49731;DHT22;35622;52.008;5.426;2023-07-13T09:18:16;24.40;68.20
49731;DHT22;35622;52.008;5.426;2023-07-13T09:21:09;25.00;66.50
49731;DHT22;35622;52.008;5.426;2023-07-13T09:23:36;25.80;64.90
49731;DHT22;35622;52.008;5.426;2023-07-13T09:26:19;26.30;61.20
49731;DHT22;35622;52.008;5.426;2023-07-13T09:28:55;26.70;59.80
49731;DHT22;35622;52.008;5.426;2023-07-13T09:31:34;26.90;59.10
49731;DHT22;35622;52.008;5.426;2023-07-13T09:34:00;27.10;58.30
49731;DHT22;35622;52.008;5.426;2023-07-13T09:36:31;27.20;55.80
49731;DHT22;35622;52.008;5.426;2023-07-13T09:39:09;27.10;57.10
49731;DHT22;35622;52.008;5.426;2023-07-13T09:44:39;27.20;58.50
49731;DHT22;35622;52.008;5.426;2023-07-13T09:47:26;26.80;55.20
49731;DHT22;35622;52.008;5.426;2023-07-13T09:49:56;27.10;55.50
49731;DHT22;35622;52.008;5.426;2023-07-13T09:52:23;26.90;57.00
49731;DHT22;35622;52.008;5.426;2023-07-13T09:54:51;26.80;56.50
49731;DHT22;35622;52.008;5.426;2023-07-13T09:57:22;26.80;57.70
49731;DHT22;35622;52.008;5.426;2023-07-13T09:59:50;26.40;57.70
49731;DHT22;35622;52.008;5.426;2023-07-13T10:04:59;26.60;57.90
49731;DHT22;35622;52.008;5.426;2023-07-13T10:07:25;27.10;56.90
49731;DHT22;35622;52.008;5.426;2023-07-13T10:09:55;27.50;53.80
49731;DHT22;35622;52.008;5.426;2023-07-13T10:12:21;27.70;55.00
49731;DHT22;35622;52.008;5.426;2023-07-13T10:14:51;27.50;51.80
49731;DHT22;35622;52.008;5.426;2023-07-13T10:17:32;27.30;52.80
49731;DHT22;35622;52.008;5.426;2023-07-13T10:20:03;26.90;51.90
49731;DHT22;35622;52.008;5.426;2023-07-13T10:25:19;26.30;51.80
49731;DHT22;35622;52.008;5.426;2023-07-13T10:27:46;26.00;53.40
49731;DHT22;35622;52.008;5.426;2023-07-13T10:32:49;26.30;54.40
49731;DHT22;35622;52.008;5.426;2023-07-13T10:35:17;26.80;54.10
49731;DHT22;35622;52.008;5.426;2023-07-13T10:38:04;26.70;53.20
49731;DHT22;35622;52.008;5.426;2023-07-13T10:40:38;26.70;54.70
49731;DHT22;35622;52.008;5.426;2023-07-13T10:43:18;26.50;55.50
49731;DHT22;35622;52.008;5.426;2023-07-13T10:45:46;25.90;57.20
49731;DHT22;35622;52.008;5.426;2023-07-13T10:48:17;25.70;58.70
49731;DHT22;35622;52.008;5.426;2023-07-13T10:50:45;25.70;58.60
49731;DHT22;35622;52.008;5.426;2023-07-13T10:53:32;26.20;59.10
49731;DHT22;35622;52.008;5.426;2023-07-13T10:56:22;26.60;58.80
49731;DHT22;35622;52.008;5.426;2023-07-13T10:58:45;27.00;56.50
49731;DHT22;35622;52.008;5.426;2023-07-13T11:01:14;27.10;53.70
49731;DHT22;35622;52.008;5.426;2023-07-13T11:08:52;27.10;52.20
49731;DHT22;35622;52.008;5.426;2023-07-13T11:21:22;27.10;51.20
49731;DHT22;35622;52.008;5.426;2023-07-13T11:24:02;27.00;51.70
49731;DHT22;35622;52.008;5.426;2023-07-13T11:26:43;27.40;55.50
49731;DHT22;35622;52.008;5.426;2023-07-13T11:31:58;26.90;52.80
49731;DHT22;35622;52.008;5.426;2023-07-13T11:34:29;27.20;53.40
49731;DHT22;35622;52.008;5.426;2023-07-13T11:36:56;27.10;51.80
49731;DHT22;35622;52.008;5.426;2023-07-13T11:42:00;26.80;52.20
49731;DHT22;35622;52.008;5.426;2023-07-13T11:44:29;26.60;53.20
49731;DHT22;35622;52.008;5.426;2023-07-13T11:47:09;26.40;53.20
49731;DHT22;35622;52.008;5.426;2023-07-13T11:49:48;25.90;54.40
49731;DHT22;35622;52.008;5.426;2023-07-13T11:52:21;26.30;56.50
49731;DHT22;35622;52.008;5.426;2023-07-13T11:54:55;26.70;53.50
49731;DHT22;35622;52.008;5.426;2023-07-13T11:57:31;27.10;54.00
49731;DHT22;35622;52.008;5.426;2023-07-13T12:00:11;27.20;55.10
49731;DHT22;35622;52.008;5.426;2023-07-13T12:02:40;27.30;54.00
49731;DHT22;35622;52.008;5.426;2023-07-13T12:05:11;27.70;53.50
49731;DHT22;35622;52.008;5.426;2023-07-13T12:07:38;27.80;50.60
49731;DHT22;35622;52.008;5.426;2023-07-13T12:12:55;27.30;51.00
49731;DHT22;35622;52.008;5.426;2023-07-13T12:15:22;26.90;50.30
49731;DHT22;35622;52.008;5.426;2023-07-13T12:17:49;26.90;52.40
49731;DHT22;35622;52.008;5.426;2023-07-13T12:20:24;27.10;51.30
49731;DHT22;35622;52.008;5.426;2023-07-13T12:22:51;27.20;51.90
49731;DHT22;35622;52.008;5.426;2023-07-13T12:25:17;27.20;50.50
49731;DHT22;35622;52.008;5.426;2023-07-13T12:27:48;27.30;50.40
49731;DHT22;35622;52.008;5.426;2023-07-13T12:30:32;27.20;49.70
49731;DHT22;35622;52.008;5.426;2023-07-13T12:33:05;27.30;52.70
49731;DHT22;35622;52.008;5.426;2023-07-13T12:35:40;27.40;49.90
49731;DHT22;35622;52.008;5.426;2023-07-13T12:38:10;27.40;49.60
49731;DHT22;35622;52.008;5.426;2023-07-13T12:40:36;27.00;48.40
49731;DHT22;35622;52.008;5.426;2023-07-13T12:43:03;27.00;49.80
49731;DHT22;35622;52.008;5.426;2023-07-13T12:45:33;26.70;50.60
49731;DHT22;35622;52.008;5.426;2023-07-13T12:48:05;26.70;50.00
49731;DHT22;35622;52.008;5.426;2023-07-13T12:50:38;27.00;51.50
49731;DHT22;35622;52.008;5.426;2023-07-13T12:53:14;26.60;48.50
49731;DHT22;35622;52.008;5.426;2023-07-13T12:55:48;26.30;49.20
49731;DHT22;35622;52.008;5.426;2023-07-13T12:58:40;26.30;50.00
49731;DHT22;35622;52.008;5.426;2023-07-13T13:01:12;26.40;51.20
49731;DHT22;35622;52.008;5.426;2023-07-13T13:03:44;26.70;48.90
49731;DHT22;35622;52.008;5.426;2023-07-13T13:08:45;26.90;48.40
49731;DHT22;35622;52.008;5.426;2023-07-13T13:11:11;27.40;47.60
49731;DHT22;35622;52.008;5.426;2023-07-13T13:13:40;27.70;49.80
49731;DHT22;35622;52.008;5.426;2023-07-13T13:16:30;27.90;45.10
49731;DHT22;35622;52.008;5.426;2023-07-13T13:19:17;27.80;46.20
49731;DHT22;35622;52.008;5.426;2023-07-13T13:21:44;27.80;47.70
49731;DHT22;35622;52.008;5.426;2023-07-13T13:24:16;27.90;47.70
49731;DHT22;35622;52.008;5.426;2023-07-13T13:26:43;28.00;44.70
49731;DHT22;35622;52.008;5.426;2023-07-13T13:29:21;27.90;44.80
49731;DHT22;35622;52.008;5.426;2023-07-13T13:31:49;27.90;44.20
49731;DHT22;35622;52.008;5.426;2023-07-13T13:34:17;28.10;45.00
49731;DHT22;35622;52.008;5.426;2023-07-13T13:36:43;27.90;44.80
49731;DHT22;35622;52.008;5.426;2023-07-13T13:39:34;28.20;47.00
49731;DHT22;35622;52.008;5.426;2023-07-13T13:42:00;28.40;43.60
49731;DHT22;35622;52.008;5.426;2023-07-13T13:44:26;28.40;46.60
49731;DHT22;35622;52.008;5.426;2023-07-13T13:46:53;28.30;43.10
49731;DHT22;35622;52.008;5.426;2023-07-13T13:49:25;28.20;44.30
49731;DHT22;35622;52.008;5.426;2023-07-13T13:51:52;28.40;44.50
49731;DHT22;35622;52.008;5.426;2023-07-13T13:54:20;28.20;43.20
49731;DHT22;35622;52.008;5.426;2023-07-13T13:56:49;27.90;43.60
49731;DHT22;35622;52.008;5.426;2023-07-13T13:59:15;28.00;43.00
49731;DHT22;35622;52.008;5.426;2023-07-13T14:01:42;28.20;44.30
49731;DHT22;35622;52.008;5.426;2023-07-13T14:04:17;28.20;41.90
49731;DHT22;35622;52.008;5.426;2023-07-13T14:06:43;28.00;44.40
49731;DHT22;35622;52.008;5.426;2023-07-13T14:09:14;28.20;44.70
49731;DHT22;35622;52.008;5.426;2023-07-13T14:11:41;27.90;45.00
49731;DHT22;35622;52.008;5.426;2023-07-13T14:14:42;27.90;43.90
49731;DHT22;35622;52.008;5.426;2023-07-13T14:17:01;27.90;44.50
49731;DHT22;35622;52.008;5.426;2023-07-13T14:19:27;27.50;45.00
49731;DHT22;35622;52.008;5.426;2023-07-13T14:21:52;27.50;45.60
49731;DHT22;35622;52.008;5.426;2023-07-13T14:24:19;27.70;45.20
49731;DHT22;35622;52.008;5.426;2023-07-13T14:26:46;27.80;44.10
49731;DHT22;35622;52.008;5.426;2023-07-13T14:29:14;27.50;45.80
49731;DHT22;35622;52.008;5.426;2023-07-13T14:31:40;27.40;46.30
49731;DHT22;35622;52.008;5.426;2023-07-13T14:34:08;28.00;46.60
49731;DHT22;35622;52.008;5.426;2023-07-13T14:36:41;26.90;44.00
49731;DHT22;35622;52.008;5.426;2023-07-13T14:39:18;26.60;46.60
49731;DHT22;35622;52.008;5.426;2023-07-13T14:41:44;27.00;47.30
49731;DHT22;35622;52.008;5.426;2023-07-13T14:44:15;27.30;44.70
49731;DHT22;35622;52.008;5.426;2023-07-13T14:46:41;27.50;45.60
49731;DHT22;35622;52.008;5.426;2023-07-13T14:51:49;27.80;47.00
49731;DHT22;35622;52.008;5.426;2023-07-13T14:54:14;26.70;47.60
49731;DHT22;35622;52.008;5.426;2023-07-13T14:56:40;26.20;46.20
49731;DHT22;35622;52.008;5.426;2023-07-13T14:59:05;25.90;49.60
49731;DHT22;35622;52.008;5.426;2023-07-13T15:01:36;26.40;48.10
49731;DHT22;35622;52.008;5.426;2023-07-13T15:04:02;25.90;47.10
49731;DHT22;35622;52.008;5.426;2023-07-13T15:06:28;25.60;48.90
49731;DHT22;35622;52.008;5.426;2023-07-13T15:08:54;26.10;50.40
49731;DHT22;35622;52.008;5.426;2023-07-13T15:11:21;26.40;48.30
49731;DHT22;35622;52.008;5.426;2023-07-13T15:13:47;26.80;50.40
49731;DHT22;35622;52.008;5.426;2023-07-13T15:16:23;26.90;46.20
49731;DHT22;35622;52.008;5.426;2023-07-13T15:18:50;27.20;45.00
49731;DHT22;35622;52.008;5.426;2023-07-13T15:21:21;27.10;43.90
49731;DHT22;35622;52.008;5.426;2023-07-13T15:23:47;27.00;44.70
49731;DHT22;35622;52.008;5.426;2023-07-13T15:26:17;26.90;45.00
49731;DHT22;35622;52.008;5.426;2023-07-13T15:28:44;27.30;46.10
49731;DHT22;35622;52.008;5.426;2023-07-13T15:31:25;27.00;44.80
49731;DHT22;35622;52.008;5.426;2023-07-13T15:33:55;26.40;45.90
49731;DHT22;35622;52.008;5.426;2023-07-13T15:36:23;26.50;46.60
49731;DHT22;35622;52.008;5.426;2023-07-13T15:38:52;26.90;46.80
49731;DHT22;35622;52.008;5.426;2023-07-13T15:41:26;27.30;48.00
49731;DHT22;35622;52.008;5.426;2023-07-13T15:43:57;27.10;46.00
49731;DHT22;35622;52.008;5.426;2023-07-13T15:46:27;26.90;44.70
49731;DHT22;35622;52.008;5.426;2023-07-13T15:48:54;27.00;45.60
49731;DHT22;35622;52.008;5.426;2023-07-13T15:51:30;26.70;48.10
49731;DHT22;35622;52.008;5.426;2023-07-13T15:54:01;26.40;46.00
49731;DHT22;35622;52.008;5.426;2023-07-13T15:56:35;26.30;46.20
49731;DHT22;35622;52.008;5.426;2023-07-13T15:59:02;26.90;43.90
49731;DHT22;35622;52.008;5.426;2023-07-13T16:01:28;27.00;45.00
49731;DHT22;35622;52.008;5.426;2023-07-13T16:03:55;26.90;45.80
49731;DHT22;35622;52.008;5.426;2023-07-13T16:06:24;27.10;45.40
49731;DHT22;35622;52.008;5.426;2023-07-13T16:08:52;27.00;43.00
49731;DHT22;35622;52.008;5.426;2023-07-13T16:11:22;26.60;45.60
49731;DHT22;35622;52.008;5.426;2023-07-13T16:13:48;26.30;44.70
49731;DHT22;35622;52.008;5.426;2023-07-13T16:16:21;25.70;46.20
49731;DHT22;35622;52.008;5.426;2023-07-13T16:18:53;25.90;49.50
49731;DHT22;35622;52.008;5.426;2023-07-13T16:21:28;26.30;47.60
49731;DHT22;35622;52.008;5.426;2023-07-13T16:23:54;26.70;47.90
49731;DHT22;35622;52.008;5.426;2023-07-13T16:26:35;26.60;45.60